LGZA/ZTH METAR and TAF weather

Enter ICAO airport designator
Station Type Date Time Source
LGZA METAR 2021/05/11 15:50 UTC NOAA

LGZA 111550Z 14004KT CAVOK 24/10 Q1013


Station Type Date Time Source
LGZA Decoded METAR 2021/05/11 15:50 UTC NOAA

Zakinthos Airport , Greece (LGZA) 37-45N 020-53E
May 11, 2021 - 11:50 AM EDT / 2021.05.11 1550 UTC
Wind: from the SE (140 degrees) at 5 MPH (4 KT):0
Visibility: greater than 7 mile(s):0
Temperature: 75 F (24 C)
Dew Point: 50 F (10 C)
Relative Humidity: 41%
Pressure (altimeter): 29.91 in. Hg (1013 hPa)
ob: LGZA 111550Z 14004KT CAVOK 24/10 Q1013
cycle: 16

Station Type Date Time Source
LGZA TAF 2011/11/25 15:06 UTC NOAA

TAF TAF LGZA 251400Z 2515/2603 02012KT 9999 FEW025 SCT035 BKN080 PROB30
TEMPO 2518/2603 8000 RA PROB30 2522/2603 5000 BR SCT010

Example: see airport list